createdAt,value
2019-04-07T00:01:20.662Z,97547.53
2019-04-07T00:03:48.339Z,97549.92
2019-04-07T00:06:15.670Z,97584.24
2019-04-07T00:08:43.268Z,97562.33
2019-04-07T00:11:10.584Z,97550.45
2019-04-07T00:13:37.469Z,97552.25
2019-04-07T00:16:04.656Z,97554.89
2019-04-07T00:18:32.051Z,97554.02
2019-04-07T00:21:00.278Z,97555.73
2019-04-07T00:23:27.020Z,97569.89
2019-04-07T00:25:53.862Z,97564.88
2019-04-07T00:28:21.155Z,97552.13
2019-04-07T00:30:47.991Z,97557.52
2019-04-07T00:33:16.419Z,97555.81
2019-04-07T00:35:43.609Z,97556.52
2019-04-07T00:38:10.655Z,97553.61
2019-04-07T00:40:37.379Z,97555.69
2019-04-07T00:43:04.533Z,97552.29
2019-04-07T00:45:36.057Z,97554.33
2019-04-07T00:48:02.809Z,97550.31
2019-04-07T00:50:31.672Z,97555.64
2019-04-07T00:52:59.040Z,97561.53
2019-04-07T00:55:26.282Z,97555.50
2019-04-07T00:57:53.607Z,97553.66
2019-04-07T01:00:22.032Z,97552.38
2019-04-07T01:02:49.215Z,97554.45
2019-04-07T01:05:17.176Z,97549.65
2019-04-07T01:07:43.940Z,97549.70
2019-04-07T01:10:10.999Z,97556.34
2019-04-07T01:12:38.394Z,97550.36
2019-04-07T01:15:05.483Z,97543.88
2019-04-07T01:17:32.223Z,97551.50
2019-04-07T01:19:58.957Z,97548.16
2019-04-07T01:22:25.780Z,97548.02
2019-04-07T01:24:52.664Z,97549.05
2019-04-07T01:27:20.409Z,97548.28
2019-04-07T01:29:47.564Z,97556.25
2019-04-07T01:32:14.794Z,97549.00
2019-04-07T01:34:41.744Z,97543.28
2019-04-07T01:37:08.769Z,97553.70
2019-04-07T01:39:35.808Z,97593.87
2019-04-07T01:42:21.380Z,97548.63
2019-04-07T01:45:13.996Z,97552.86
2019-04-07T01:47:52.318Z,97547.59
2019-04-07T01:50:51.794Z,97547.40
2019-04-07T01:53:25.661Z,97552.38
2019-04-07T01:56:21.774Z,97549.55
2019-04-07T01:58:58.310Z,97561.77
2019-04-07T02:01:40.468Z,97555.36
2019-04-07T02:04:42.471Z,97555.17
2019-04-07T02:07:32.575Z,97557.61
2019-04-07T02:10:17.654Z,97559.64
2019-04-07T02:13:03.175Z,97557.23
2019-04-07T02:16:05.020Z,97559.69
2019-04-07T02:18:51.390Z,97555.98
2019-04-07T02:21:26.163Z,97566.95
2019-04-07T02:24:14.663Z,97562.12
2019-04-07T02:26:47.195Z,97561.81
2019-04-07T02:29:45.885Z,97560.13
2019-04-07T02:32:31.317Z,97561.03
2019-04-07T02:35:07.570Z,97567.32
2019-04-07T02:37:55.354Z,97560.23
2019-04-07T02:40:31.361Z,97558.64
2019-04-07T02:43:16.275Z,97560.78
2019-04-07T02:46:06.474Z,97564.78
2019-04-07T02:48:56.338Z,97575.79
2019-04-07T02:51:42.067Z,97578.96
2019-04-07T02:54:20.666Z,97585.37
2019-04-07T02:57:13.263Z,97587.18
2019-04-07T02:59:51.383Z,97612.83
2019-04-07T03:02:29.136Z,97587.32
2019-04-07T03:05:08.976Z,97590.01
2019-04-07T03:07:44.551Z,97590.88
2019-04-07T03:10:26.322Z,97581.46
2019-04-07T03:13:10.993Z,97583.31
2019-04-07T03:15:42.885Z,97585.03
2019-04-07T03:18:47.112Z,97584.81
2019-04-07T03:21:31.078Z,97585.52
2019-04-07T03:24:24.459Z,97591.72
2019-04-07T03:27:17.873Z,97588.63
2019-04-07T03:29:59.582Z,97593.59
2019-04-07T03:32:50.654Z,97596.45
2019-04-07T03:35:26.593Z,97583.34
2019-04-07T03:38:12.146Z,97570.88
2019-04-07T03:40:44.313Z,97573.52
2019-04-07T03:43:21.544Z,97577.20
2019-04-07T03:46:12.765Z,97564.78
2019-04-07T03:48:47.985Z,97575.41
2019-04-07T03:51:24.354Z,97609.05
2019-04-07T03:54:00.667Z,97576.56
2019-04-07T03:57:05.285Z,97581.89
2019-04-07T03:59:57.893Z,97608.30
2019-04-07T04:02:46.861Z,97602.20
2019-04-07T04:05:22.164Z,97577.36
2019-04-07T04:07:57.986Z,97583.66
2019-04-07T04:10:36.948Z,97580.41
2019-04-07T04:13:32.722Z,97576.23
2019-04-07T04:16:08.662Z,97582.75
2019-04-07T04:18:35.753Z,97584.33
2019-04-07T04:21:03.533Z,97590.92
2019-04-07T04:23:31.710Z,97584.45
2019-04-07T04:25:59.067Z,97584.78
2019-04-07T04:28:25.964Z,97591.42
2019-04-07T04:30:56.565Z,97590.17
2019-04-07T04:33:23.648Z,97588.45
2019-04-07T04:35:51.941Z,97588.26
2019-04-07T04:38:20.631Z,97583.94
2019-04-07T04:40:49.368Z,97588.75
2019-04-07T04:43:16.363Z,97595.94
2019-04-07T04:45:43.079Z,97606.64
2019-04-07T04:48:10.285Z,97600.52
2019-04-07T04:50:37.382Z,97608.42
2019-04-07T04:53:04.835Z,97614.22
2019-04-07T04:55:31.971Z,97620.02
2019-04-07T04:57:58.977Z,97622.75
2019-04-07T05:00:26.661Z,97617.48
2019-04-07T05:02:53.723Z,97626.53
2019-04-07T05:05:21.205Z,97623.14
2019-04-07T05:07:57.786Z,97627.12
2019-04-07T05:10:17.139Z,97625.81
2019-04-07T05:12:44.595Z,97632.08
2019-04-07T05:15:11.994Z,97625.31
2019-04-07T05:17:39.041Z,97644.06
2019-04-07T05:20:05.914Z,97637.12
2019-04-07T05:22:33.288Z,97636.79
2019-04-07T05:25:00.136Z,97636.69
2019-04-07T05:27:27.585Z,97637.16
2019-04-07T05:29:54.595Z,97643.41
2019-04-07T05:32:21.359Z,97643.61
2019-04-07T05:34:48.853Z,97643.58
2019-04-07T05:37:15.596Z,97641.59
2019-04-07T05:39:42.581Z,97637.14
2019-04-07T05:42:09.279Z,97646.78
2019-04-07T05:44:36.413Z,97645.52
2019-04-07T05:47:04.032Z,97679.07
2019-04-07T05:49:31.396Z,97657.31
2019-04-07T05:51:59.552Z,97664.44
2019-04-07T05:54:27.492Z,97658.11
2019-04-07T05:56:58.699Z,97656.98
2019-04-07T05:59:26.383Z,97670.91
2019-04-07T06:01:59.280Z,97672.23
2019-04-07T06:04:21.822Z,97675.23
2019-04-07T06:06:52.535Z,97675.14
2019-04-07T06:09:19.028Z,97678.84
2019-04-07T06:11:46.436Z,97670.56
2019-04-07T06:14:16.694Z,97670.70
2019-04-07T06:16:46.919Z,97673.04
2019-04-07T06:19:13.912Z,97671.69
2019-04-07T06:21:41.549Z,97674.39
2019-04-07T06:24:08.981Z,97665.98
2019-04-07T06:26:37.120Z,97667.20
2019-04-07T06:29:03.994Z,97665.82
2019-04-07T06:31:33.276Z,97670.83
2019-04-07T06:34:00.705Z,97672.54
2019-04-07T06:36:27.565Z,97669.05
2019-04-07T06:38:54.765Z,97677.67
2019-04-07T06:41:21.819Z,97679.72
2019-04-07T06:43:48.619Z,97680.33
2019-04-07T06:46:43.968Z,97678.06
2019-04-07T06:49:20.701Z,97683.11
2019-04-07T06:51:55.976Z,97681.91
2019-04-07T06:54:55.995Z,97681.64
2019-04-07T06:57:49.730Z,97684.15
2019-04-07T07:00:30.114Z,97685.42
2019-04-07T07:03:25.664Z,97683.03
2019-04-07T07:06:11.217Z,97690.47
2019-04-07T07:08:48.511Z,97703.83
2019-04-07T07:11:34.770Z,97694.51
2019-04-07T07:14:43.296Z,97729.98
2019-04-07T07:17:17.476Z,97696.65
2019-04-07T07:20:01.718Z,97695.48
2019-04-07T07:22:35.700Z,97704.97
2019-04-07T07:25:05.208Z,97710.22
2019-04-07T07:27:33.770Z,97701.75
2019-04-07T07:30:01.246Z,97695.36
2019-04-07T07:32:28.197Z,97706.89
2019-04-07T07:34:55.275Z,97704.91
2019-04-07T07:37:25.273Z,97696.23
2019-04-07T07:39:51.952Z,97692.00
2019-04-07T07:42:21.502Z,97698.21
2019-04-07T07:44:48.266Z,97705.18
2019-04-07T07:47:15.383Z,97725.88
2019-04-07T07:49:42.427Z,97698.98
2019-04-07T07:52:09.404Z,97701.38
2019-04-07T07:54:36.754Z,97704.20
2019-04-07T07:57:08.867Z,97712.38
2019-04-07T07:59:38.975Z,97709.08
2019-04-07T08:02:04.839Z,97717.11
2019-04-07T08:04:31.618Z,97716.70
2019-04-07T08:06:58.989Z,97715.81
2019-04-07T08:09:27.085Z,97722.98
2019-04-07T08:11:56.700Z,97720.42
2019-04-07T08:14:23.516Z,97724.28
2019-04-07T08:16:51.078Z,97730.74
2019-04-07T08:19:18.995Z,97741.86
2019-04-07T08:21:50.461Z,97733.05
2019-04-07T08:24:19.168Z,97736.70
2019-04-07T08:26:48.720Z,97737.41
2019-04-07T08:29:16.909Z,97728.77
2019-04-07T08:31:44.833Z,97729.84
2019-04-07T08:34:12.090Z,97734.28
2019-04-07T08:36:41.949Z,97744.64
2019-04-07T08:39:19.420Z,97736.17
2019-04-07T08:41:39.706Z,97739.05
2019-04-07T08:44:05.100Z,97730.52
2019-04-07T08:46:35.598Z,97739.88
2019-04-07T08:49:01.785Z,97734.86
2019-04-07T08:51:30.787Z,97737.86
2019-04-07T08:53:58.551Z,97734.78
2019-04-07T08:56:26.601Z,97734.88
2019-04-07T08:58:54.397Z,97736.13
2019-04-07T09:01:22.034Z,97739.44
2019-04-07T09:03:49.638Z,97741.41
2019-04-07T09:06:18.510Z,97732.45
2019-04-07T09:08:46.163Z,97730.64
2019-04-07T09:11:14.746Z,97729.84
2019-04-07T09:13:45.216Z,97737.19
2019-04-07T09:16:31.211Z,97736.12
2019-04-07T09:19:18.186Z,97739.39
2019-04-07T09:22:23.315Z,97725.58
2019-04-07T09:25:21.536Z,97730.75
2019-04-07T09:28:07.620Z,97737.30
2019-04-07T09:30:53.628Z,97735.02
2019-04-07T09:33:52.834Z,97770.33
2019-04-07T09:36:54.548Z,97736.52
2019-04-07T09:39:55.411Z,97738.53
2019-04-07T09:42:24.378Z,97781.41
2019-04-07T09:45:12.811Z,97784.24
2019-04-07T09:48:02.861Z,97739.97
2019-04-07T09:50:49.577Z,97752.77
2019-04-07T09:53:22.981Z,97748.14
2019-04-07T09:56:16.231Z,97744.63
2019-04-07T09:58:50.331Z,97738.23
2019-04-07T10:01:51.818Z,97738.44
2019-04-07T10:04:42.287Z,97737.36
2019-04-07T10:07:33.408Z,97743.29
2019-04-07T10:10:20.125Z,97755.48
2019-04-07T10:13:05.511Z,97740.39
2019-04-07T10:16:01.022Z,97743.91
2019-04-07T10:18:52.230Z,97747.77
2019-04-07T10:21:50.892Z,97746.00
2019-04-07T10:24:40.439Z,97748.36
2019-04-07T10:27:17.616Z,97742.57
2019-04-07T10:29:54.543Z,97742.27
2019-04-07T10:32:29.419Z,97743.78
2019-04-07T10:35:04.673Z,97732.39
2019-04-07T10:37:53.031Z,97738.33
2019-04-07T10:40:57.770Z,97735.67
2019-04-07T10:43:36.973Z,97726.27
2019-04-07T10:46:29.395Z,97578.03
2019-04-07T10:49:10.357Z,97725.19
2019-04-07T10:52:02.805Z,97734.55
2019-04-07T10:54:41.511Z,97738.55
2019-04-07T10:57:35.423Z,97728.19
2019-04-07T11:00:22.645Z,97732.41
2019-04-07T11:03:09.647Z,97731.43
2019-04-07T11:05:50.391Z,97719.27
2019-04-07T11:08:30.881Z,97730.48
2019-04-07T11:11:23.248Z,97728.27
2019-04-07T11:14:09.613Z,97720.80
2019-04-07T11:16:54.853Z,97726.14
2019-04-07T11:19:53.360Z,97724.83
2019-04-07T11:22:38.467Z,97730.72
2019-04-07T11:25:18.365Z,97724.91
2019-04-07T11:28:05.333Z,97753.05
2019-04-07T11:30:54.556Z,97730.14
2019-04-07T11:33:43.884Z,97743.16
2019-04-07T11:36:20.103Z,97718.45
2019-04-07T11:38:53.453Z,97721.92
2019-04-07T11:41:42.373Z,97728.66
2019-04-07T11:44:29.270Z,97741.83
2019-04-07T11:47:05.206Z,97751.20
2019-04-07T11:49:44.714Z,97731.63
2019-04-07T11:53:10.947Z,97721.82
2019-04-07T11:55:57.663Z,97734.30
2019-04-07T11:58:40.849Z,97721.72
2019-04-07T12:01:28.167Z,97732.16
2019-04-07T12:04:26.286Z,97728.29
2019-04-07T12:07:11.169Z,97742.19
2019-04-07T12:10:01.129Z,97731.68
2019-04-07T12:12:51.598Z,97746.11
2019-04-07T12:15:32.308Z,97760.50
2019-04-07T12:18:18.611Z,97729.14
2019-04-07T12:20:50.752Z,97728.60
2019-04-07T12:23:43.309Z,97730.25
2019-04-07T12:26:20.561Z,97736.03
2019-04-07T12:29:10.790Z,97731.30
2019-04-07T12:31:56.502Z,97733.17
2019-04-07T12:34:51.947Z,97727.70
2019-04-07T12:37:43.747Z,97740.04
2019-04-07T12:40:48.625Z,97728.48
2019-04-07T12:43:42.818Z,97732.03
2019-04-07T12:46:32.165Z,97728.02
2019-04-07T12:49:28.554Z,97732.36
2019-04-07T12:52:15.147Z,97735.97
2019-04-07T12:55:11.970Z,97735.52
2019-04-07T12:58:11.727Z,97725.73
2019-04-07T13:00:57.771Z,97729.29
2019-04-07T13:03:42.681Z,97730.70
2019-04-07T13:06:33.270Z,97725.92
2019-04-07T13:09:27.832Z,97727.09
2019-04-07T13:12:22.349Z,97726.05
2019-04-07T13:15:21.653Z,97722.40
2019-04-07T13:18:07.024Z,97724.72
2019-04-07T13:20:50.271Z,97721.68
2019-04-07T13:23:37.086Z,97720.66
2019-04-07T13:26:35.711Z,97727.89
2019-04-07T13:29:11.810Z,97729.63
2019-04-07T13:32:07.642Z,97725.76
2019-04-07T13:34:51.035Z,97737.62
2019-04-07T13:37:26.513Z,97727.56
2019-04-07T13:40:25.259Z,97723.89
2019-04-07T13:43:08.769Z,97728.80
2019-04-07T13:45:59.798Z,97724.16
2019-04-07T13:48:49.865Z,97719.23
2019-04-07T13:51:37.766Z,97729.19
2019-04-07T13:54:24.293Z,97727.45
2019-04-07T13:57:25.900Z,97733.76
2019-04-07T14:00:16.991Z,97734.27
2019-04-07T14:02:53.332Z,97731.63
2019-04-07T14:05:38.949Z,97731.64
2019-04-07T14:08:32.371Z,97730.20
2019-04-07T14:11:17.664Z,97728.02
2019-04-07T14:14:12.821Z,97729.50
2019-04-07T14:16:59.572Z,97733.83
2019-04-07T14:19:33.275Z,97740.87
2019-04-07T14:22:11.189Z,97735.02
2019-04-07T14:24:56.722Z,97754.62
2019-04-07T14:27:30.910Z,97749.70
2019-04-07T14:30:08.872Z,97749.30
2019-04-07T14:33:00.138Z,97756.19
2019-04-07T14:35:56.425Z,97753.41
2019-04-07T14:38:40.205Z,97758.52
2019-04-07T14:41:30.243Z,97759.98
2019-04-07T14:44:17.119Z,97757.09
2019-04-07T14:47:16.149Z,97765.65
2019-04-07T14:50:04.881Z,97775.21
2019-04-07T14:52:56.678Z,97767.98
2019-04-07T14:55:49.568Z,97766.54
2019-04-07T14:58:30.306Z,97768.08
2019-04-07T15:01:15.826Z,97768.53
2019-04-07T15:03:42.868Z,97772.34
2019-04-07T15:06:10.899Z,97811.50
2019-04-07T15:09:16.567Z,97781.02
2019-04-07T15:12:14.725Z,97786.23
2019-04-07T15:14:34.352Z,97778.69
2019-04-07T15:17:01.314Z,97783.78
2019-04-07T15:19:28.848Z,97076.59
2019-04-07T15:21:55.752Z,97785.13
2019-04-07T15:24:22.818Z,97786.67
2019-04-07T15:26:50.241Z,97781.88
2019-04-07T15:29:17.142Z,97792.12
2019-04-07T15:31:49.046Z,97788.89
2019-04-07T15:34:14.386Z,97787.80
2019-04-07T15:36:42.817Z,97785.67
2019-04-07T15:39:10.963Z,97795.57
2019-04-07T15:41:38.282Z,97788.55
2019-04-07T15:44:07.007Z,97793.69
2019-04-07T15:46:34.431Z,97795.67
2019-04-07T15:49:02.695Z,97802.34
2019-04-07T15:51:34.108Z,97812.34
2019-04-07T15:53:59.361Z,97803.92
2019-04-07T15:56:27.157Z,97795.03
2019-04-07T15:58:58.206Z,97797.80
2019-04-07T16:01:25.727Z,97801.91
2019-04-07T16:03:54.723Z,97794.81
2019-04-07T16:06:21.543Z,97799.47
2019-04-07T16:08:49.877Z,97822.50
2019-04-07T16:11:17.746Z,97815.06
2019-04-07T16:13:45.520Z,97816.38
2019-04-07T16:16:13.525Z,97804.59
2019-04-07T16:18:43.085Z,97809.59
2019-04-07T16:21:11.150Z,97842.61
2019-04-07T16:23:38.124Z,97817.11
2019-04-07T16:26:05.244Z,97820.62
2019-04-07T16:28:33.056Z,97814.09
2019-04-07T16:30:59.854Z,97814.83
2019-04-07T16:33:27.226Z,97817.34
2019-04-07T16:35:56.331Z,97838.41
2019-04-07T16:38:23.149Z,97855.92
2019-04-07T16:40:50.214Z,97826.55
2019-04-07T16:43:18.884Z,97825.60
2019-04-07T16:45:50.644Z,97828.75
2019-04-07T16:48:17.600Z,97833.54
2019-04-07T16:50:45.145Z,97848.98
2019-04-07T16:53:12.281Z,97836.87
2019-04-07T16:55:41.636Z,97840.85
2019-04-07T16:58:14.303Z,97861.41
2019-04-07T17:00:41.881Z,97850.39
2019-04-07T17:03:09.892Z,97859.14
2019-04-07T17:05:37.574Z,97852.47
2019-04-07T17:08:05.389Z,97858.38
2019-04-07T17:10:35.078Z,97855.47
2019-04-07T17:13:09.237Z,97859.20
2019-04-07T17:15:30.667Z,97857.67
2019-04-07T17:17:58.812Z,97879.86
2019-04-07T17:20:28.121Z,97868.93
2019-04-07T17:22:58.274Z,97870.55
2019-04-07T17:25:25.624Z,97867.44
2019-04-07T17:27:53.055Z,97912.75
2019-04-07T17:30:24.377Z,97880.50
2019-04-07T17:32:53.278Z,97875.58
2019-04-07T17:35:21.430Z,97873.19
2019-04-07T17:37:50.633Z,97872.83
2019-04-07T17:40:19.178Z,97880.07
2019-04-07T17:42:48.353Z,97893.09
2019-04-07T17:45:46.251Z,97886.94
2019-04-07T17:48:25.559Z,97887.66
2019-04-07T17:51:08.727Z,97897.05
2019-04-07T17:53:57.216Z,97925.60
2019-04-07T17:56:40.658Z,97893.84
2019-04-07T17:59:37.780Z,97917.86
2019-04-07T18:02:30.394Z,97891.28
2019-04-07T18:05:27.773Z,97898.02
2019-04-07T18:08:17.867Z,97901.59
2019-04-07T18:10:57.848Z,97895.77
2019-04-07T18:13:49.959Z,97897.73
2019-04-07T18:16:46.168Z,97905.42
2019-04-07T18:19:42.033Z,97917.66
2019-04-07T18:22:22.117Z,97919.72
2019-04-07T18:24:54.551Z,97924.14
2019-04-07T18:27:41.818Z,97927.72
2019-04-07T18:30:33.401Z,97930.93
2019-04-07T18:33:09.656Z,97935.84
2019-04-07T18:35:53.975Z,97930.44
2019-04-07T18:38:45.037Z,97945.49
2019-04-07T18:41:25.172Z,97932.08
2019-04-07T18:44:21.007Z,97949.95
2019-04-07T18:47:15.515Z,97950.25
2019-04-07T18:50:20.422Z,97951.91
2019-04-07T18:53:07.258Z,97955.84
2019-04-07T18:55:52.604Z,97963.42
2019-04-07T18:58:31.170Z,97956.23
2019-04-07T19:01:12.452Z,97966.09
2019-04-07T19:04:06.715Z,97967.19
2019-04-07T19:07:02.620Z,97977.77
2019-04-07T19:09:35.797Z,97980.14
2019-04-07T19:12:23.135Z,97984.69
2019-04-07T19:15:28.237Z,97987.27
2019-04-07T19:18:27.184Z,98022.47
2019-04-07T19:21:20.381Z,97995.61
2019-04-07T19:23:53.890Z,97989.53
2019-04-07T19:26:41.071Z,97991.94
2019-04-07T19:29:28.348Z,98003.37
2019-04-07T19:32:15.196Z,97996.58
2019-04-07T19:35:03.270Z,97998.14
2019-04-07T19:37:43.068Z,98001.59
2019-04-07T19:40:29.934Z,98007.92
2019-04-07T19:43:16.672Z,98005.11
2019-04-07T19:46:00.613Z,98006.13
2019-04-07T19:48:47.299Z,98024.74
2019-04-07T19:51:38.251Z,98010.19
2019-04-07T19:54:40.156Z,98010.91
2019-04-07T19:57:44.895Z,98015.36
2019-04-07T20:00:34.219Z,98016.03
2019-04-07T20:03:28.853Z,98012.51
2019-04-07T20:06:15.358Z,98015.30
2019-04-07T20:08:53.480Z,98025.05
2019-04-07T20:11:43.856Z,98015.02
2019-04-07T20:14:28.428Z,98011.83
2019-04-07T20:17:04.591Z,98013.67
2019-04-07T20:19:55.659Z,98013.67
2019-04-07T20:22:39.254Z,98027.20
2019-04-07T20:25:26.760Z,98017.88
2019-04-07T20:28:04.250Z,98020.67
2019-04-07T20:31:02.659Z,98024.47
2019-04-07T20:33:35.924Z,98025.94
2019-04-07T20:36:24.214Z,98022.87
2019-04-07T20:39:32.545Z,98018.22
2019-04-07T20:42:05.254Z,98020.71
2019-04-07T20:44:59.993Z,98020.45
2019-04-07T20:47:49.179Z,98012.04
2019-04-07T20:50:46.086Z,98022.54
2019-04-07T20:53:40.852Z,98044.69
2019-04-07T20:56:27.382Z,98030.81
2019-04-07T20:59:12.603Z,98014.52
2019-04-07T21:02:05.476Z,98019.30
2019-04-07T21:04:50.918Z,98019.80
2019-04-07T21:07:23.360Z,98015.81
2019-04-07T21:10:14.731Z,98030.84
2019-04-07T21:13:02.303Z,98027.69
2019-04-07T21:16:03.644Z,98032.44
2019-04-07T21:18:49.004Z,98037.83
2019-04-07T21:21:29.167Z,98041.07
2019-04-07T21:24:19.027Z,98042.96
2019-04-07T21:27:10.287Z,98045.05
2019-04-07T21:29:47.907Z,98046.09
2019-04-07T21:32:33.315Z,98044.02
2019-04-07T21:35:19.645Z,98056.86
2019-04-07T21:38:06.257Z,98043.13
2019-04-07T21:40:55.519Z,98042.59
2019-04-07T21:43:38.960Z,98044.75
2019-04-07T21:46:13.177Z,98047.41
2019-04-07T21:48:49.245Z,98038.54
2019-04-07T21:51:46.523Z,98082.88
2019-04-07T21:54:24.812Z,98039.55
2019-04-07T21:57:26.733Z,98042.61
2019-04-07T22:00:12.655Z,98048.47
2019-04-07T22:02:48.329Z,98049.11
2019-04-07T22:05:26.879Z,98047.23
2019-04-07T22:08:12.855Z,98044.11
2019-04-07T22:10:36.293Z,98049.77
2019-04-07T22:13:05.175Z,98054.97
2019-04-07T22:15:43.089Z,98060.41
2019-04-07T22:18:00.616Z,98065.84
2019-04-07T22:20:27.873Z,98063.18
2019-04-07T22:22:59.159Z,98061.80
2019-04-07T22:25:30.555Z,98067.95
2019-04-07T22:27:59.014Z,98062.88
2019-04-07T22:30:26.243Z,98066.84
2019-04-07T22:32:54.144Z,98064.20
2019-04-07T22:35:21.289Z,98064.55
2019-04-07T22:37:49.958Z,98056.03
2019-04-07T22:40:17.464Z,98053.51
2019-04-07T22:42:45.903Z,98050.52
2019-04-07T22:45:13.631Z,98056.73
2019-04-07T22:47:40.323Z,98066.98
2019-04-07T22:50:07.994Z,98055.50
2019-04-07T22:52:34.978Z,98062.88
2019-04-07T22:55:05.406Z,98058.64
2019-04-07T22:57:31.309Z,98072.68
2019-04-07T22:59:58.732Z,98065.17
2019-04-07T23:02:25.619Z,98071.13
2019-04-07T23:04:52.704Z,98076.95
2019-04-07T23:07:20.195Z,98068.61
2019-04-07T23:09:47.499Z,98068.27
2019-04-07T23:12:16.917Z,98071.92
2019-04-07T23:14:44.255Z,98066.41
2019-04-07T23:17:12.006Z,98068.17
2019-04-07T23:19:38.811Z,98071.92
2019-04-07T23:22:05.520Z,98069.02
2019-04-07T23:24:32.247Z,98070.11
2019-04-07T23:26:59.011Z,98062.34
2019-04-07T23:29:26.207Z,98102.36
2019-04-07T23:31:53.479Z,98064.01
2019-04-07T23:34:21.121Z,98069.48
2019-04-07T23:36:47.926Z,98070.13
2019-04-07T23:39:15.257Z,98071.72
2019-04-07T23:41:45.627Z,98073.34
2019-04-07T23:44:12.961Z,98072.51
2019-04-07T23:46:39.855Z,98074.41
2019-04-07T23:49:06.581Z,98076.03
2019-04-07T23:51:33.323Z,98073.95
2019-04-07T23:54:07.506Z,98076.11
2019-04-07T23:56:35.666Z,98071.91
2019-04-07T23:59:02.654Z,98084.77
